Time;durP1;ratioP1;P1;durP2;ratioP2;P2;SDS_P1;SDS_P2;PMS_P1;PMS_P2;Temp;Humidity;BMP_temperature;BMP_pressure;BME280_temperature;BME280_humidity;BME280_pressure;Samples;Min_cycle;Max_cycle;Signal;HPM_P1;HPM_P2
2020/12/26 00:02:12;;;;;;;1.40;1.30;;;;;;;7.39;67.43;100209.56;4970441;28;96821;-72
2020/12/26 00:04:38;;;;;;;1.40;1.27;;;;;;;7.50;67.34;100212.59;4970141;28;98553;-72
2020/12/26 00:07:05;;;;;;;1.15;1.10;;;;;;;7.39;68.08;100212.16;4970272;28;98678;-72
2020/12/26 00:09:32;;;;;;;1.58;1.48;;;;;;;7.39;67.62;100212.16;4964319;28;96795;-73
2020/12/26 00:11:58;;;;;;;1.38;1.27;;;;;;;7.34;67.77;100215.78;4960925;28;97228;-73
2020/12/26 00:14:27;;;;;;;1.88;1.40;;;;;;;7.39;67.93;100220.78;4957906;28;98651;-73
2020/12/26 00:16:57;;;;;;;1.33;1.30;;;;;;;7.41;66.71;100212.97;4960518;28;98371;-73
2020/12/26 00:19:23;;;;;;;1.50;1.38;;;;;;;7.28;67.10;100213.41;4956428;28;97014;-73
2020/12/26 00:21:50;;;;;;;2.22;1.80;;;;;;;7.15;67.79;100219.97;4939641;28;96846;-73
2020/12/26 00:24:16;;;;;;;1.52;1.42;;;;;;;7.15;67.97;100211.34;4961795;28;98441;-73
2020/12/26 00:26:43;;;;;;;1.40;1.30;;;;;;;7.18;67.72;100219.00;4958786;28;98446;-73
2020/12/26 00:29:09;;;;;;;2.92;1.85;;;;;;;7.21;68.10;100214.53;4955560;28;99866;-73
2020/12/26 00:31:36;;;;;;;3.60;3.30;;;;;;;7.20;67.71;100214.63;4956945;28;96632;-73
2020/12/26 00:34:03;;;;;;;3.00;2.70;;;;;;;7.38;67.37;100208.72;4937713;28;98402;-73
2020/12/26 00:36:29;;;;;;;2.65;2.35;;;;;;;7.23;67.07;100217.91;4956627;28;98461;-73
2020/12/26 00:38:56;;;;;;;1.20;1.20;;;;;;;7.26;67.28;100217.81;4959331;28;96851;-73
2020/12/26 00:41:22;;;;;;;3.28;2.97;;;;;;;7.33;67.68;100216.69;4958793;28;97065;-73
2020/12/26 00:43:48;;;;;;;3.85;2.22;;;;;;;7.37;68.11;100216.56;4958083;28;98145;-73
2020/12/26 00:46:15;;;;;;;1.20;1.20;;;;;;;7.39;67.59;100215.59;4956275;28;98602;-73
2020/12/26 00:48:41;;;;;;;9.73;3.85;;;;;;;7.40;67.63;100216.44;4964500;28;97058;-73
2020/12/26 00:51:13;;;;;;;6.70;4.72;;;;;;;7.32;67.88;100215.00;4940295;28;98999;-73
2020/12/26 00:53:40;;;;;;;9.07;7.18;;;;;;;7.49;68.31;100218.69;4941023;28;99651;-72
2020/12/26 00:56:07;;;;;;;2.60;2.40;;;;;;;7.48;68.08;100224.81;4941877;28;98608;-73
2020/12/26 00:58:34;;;;;;;2.88;2.20;;;;;;;7.33;67.82;100214.09;4943987;28;96884;-73
2020/12/26 01:01:00;;;;;;;2.33;2.05;;;;;;;7.46;67.29;100227.47;4940784;28;96756;-73
2020/12/26 01:03:46;;;;;;;9.65;6.75;;;;;;;7.44;67.40;100228.41;4959639;28;97586;-73
2020/12/26 01:06:16;;;;;;;18.98;11.52;;;;;;;7.19;67.65;100228.44;4972387;28;98679;-73
2020/12/26 01:08:43;;;;;;;33.35;19.27;;;;;;;7.30;68.33;100226.34;4972685;28;96611;-73
2020/12/26 01:11:10;;;;;;;29.92;18.98;;;;;;;7.33;68.75;100232.25;4972551;28;96781;-73
2020/12/26 01:13:36;;;;;;;49.65;28.60;;;;;;;7.57;67.58;100227.06;4972334;28;98558;-73
2020/12/26 01:16:02;;;;;;;26.92;16.33;;;;;;;7.45;68.25;100236.13;4971292;28;98484;-73
2020/12/26 01:18:29;;;;;;;23.55;14.23;;;;;;;7.24;68.37;100237.75;4973355;28;96502;-73
2020/12/26 01:20:56;;;;;;;9.73;6.95;;;;;;;7.22;69.30;100231.78;4964575;28;96690;-73
2020/12/26 01:23:23;;;;;;;7.28;6.00;;;;;;;7.24;68.78;100231.72;4959854;28;98579;-73
2020/12/26 01:25:50;;;;;;;2.28;2.00;;;;;;;7.46;68.77;100231.81;4958595;28;98470;-74
2020/12/26 01:28:17;;;;;;;1.75;1.63;;;;;;;7.31;70.19;100234.06;4962615;28;98334;-73
2020/12/26 01:30:43;;;;;;;1.50;1.40;;;;;;;7.48;70.05;100240.38;4962717;28;97464;-73
2020/12/26 01:33:10;;;;;;;1.20;1.20;;;;;;;7.48;70.21;100240.38;4962445;28;98570;-73
2020/12/26 01:35:36;;;;;;;1.40;1.30;;;;;;;7.55;69.50;100239.22;4958676;28;98726;-73
2020/12/26 01:38:02;;;;;;;1.60;1.50;;;;;;;7.50;70.53;100241.97;4962228;28;96657;-73
2020/12/26 01:40:29;;;;;;;2.22;1.42;;;;;;;7.39;71.30;100241.53;4962265;28;100349;-73
2020/12/26 01:42:57;;;;;;;2.70;1.30;;;;;;;7.55;70.78;100239.22;4961922;28;98533;-73
2020/12/26 01:45:24;;;;;;;1.60;1.42;;;;;;;7.64;70.84;100236.28;4958940;28;98601;-73
2020/12/26 01:47:50;;;;;;;1.30;1.20;;;;;;;7.46;71.21;100243.03;4959726;28;96849;-74
2020/12/26 01:50:17;;;;;;;1.20;1.20;;;;;;;7.46;71.82;100242.19;4942831;28;97256;-74
2020/12/26 01:52:43;;;;;;;1.42;1.33;;;;;;;7.45;71.88;100237.88;4931468;28;98629;-73
2020/12/26 01:55:09;;;;;;;1.05;1.02;;;;;;;7.54;71.27;100240.97;4946781;28;100043;-74
2020/12/26 01:57:36;;;;;;;1.30;1.20;;;;;;;7.54;71.61;100240.13;4945253;28;97136;-74
2020/12/26 02:00:06;;;;;;;1.33;1.23;;;;;;;7.56;71.17;100238.31;4946436;28;97829;-74
2020/12/26 02:02:42;;;;;;;1.38;1.35;;;;;;;7.47;71.59;100242.13;4962610;28;97233;-73
2020/12/26 02:05:08;;;;;;;1.10;1.10;;;;;;;7.48;71.75;100237.78;4941047;28;99094;-74
2020/12/26 02:07:35;;;;;;;1.20;1.20;;;;;;;7.59;71.47;100240.81;4961213;28;97772;-74
2020/12/26 02:10:02;;;;;;;1.40;1.30;;;;;;;7.62;71.18;100235.50;4943184;28;98704;-74
2020/12/26 02:12:30;;;;;;;1.52;1.30;;;;;;;7.71;70.67;100239.47;4961357;28;98491;-74
2020/12/26 02:14:56;;;;;;;1.58;1.48;;;;;;;7.46;71.79;100252.56;4964073;28;97519;-74
2020/12/26 02:17:24;;;;;;;1.67;1.58;;;;;;;7.53;71.23;100248.81;4969686;28;96750;-74
2020/12/26 02:19:51;;;;;;;1.23;1.20;;;;;;;7.47;72.01;100238.69;4991987;22;100372;-71
2020/12/26 02:22:17;;;;;;;1.00;1.00;;;;;;;7.57;71.34;100255.59;4983336;28;98423;-72
2020/12/26 02:24:43;;;;;;;1.70;1.58;;;;;;;7.69;70.67;100249.94;4981010;28;98494;-71
2020/12/26 02:27:10;;;;;;;1.30;1.20;;;;;;;7.57;70.75;100253.84;4981778;28;97813;-71
2020/12/26 02:29:36;;;;;;;0.98;0.98;;;;;;;7.55;71.28;100253.03;4982015;28;97163;-71
2020/12/26 02:32:03;;;;;;;1.20;1.20;;;;;;;7.45;71.32;100253.44;4981302;28;98678;-70
2020/12/26 02:34:29;;;;;;;1.10;1.10;;;;;;;7.49;71.48;100252.41;4976947;28;99590;-71
2020/12/26 02:36:56;;;;;;;2.47;1.42;;;;;;;7.52;71.19;100255.75;4979848;28;97285;-70
2020/12/26 02:39:22;;;;;;;2.70;1.83;;;;;;;7.52;70.57;100247.13;4979659;28;99205;-71
2020/12/26 02:41:49;;;;;;;3.28;1.27;;;;;;;7.59;69.95;100249.44;4977613;28;98541;-71
2020/12/26 02:44:15;;;;;;;1.02;1.02;;;;;;;7.59;69.51;100254.63;4980263;28;100566;-71
2020/12/26 02:46:42;;;;;;;1.95;1.60;;;;;;;7.66;69.53;100264.75;4983715;28;97206;-71
2020/12/26 02:49:08;;;;;;;1.58;1.40;;;;;;;7.69;69.45;100260.31;4983391;28;97114;-71
2020/12/26 02:51:36;;;;;;;1.55;1.45;;;;;;;7.69;70.15;100260.31;4985483;28;98744;-71
2020/12/26 02:54:02;;;;;;;1.45;1.30;;;;;;;7.53;70.19;100261.78;4980418;28;98691;-70
2020/12/26 02:56:29;;;;;;;1.40;1.30;;;;;;;7.50;70.07;100274.84;4979443;28;96622;-71
2020/12/26 02:58:55;;;;;;;1.33;1.20;;;;;;;7.50;70.56;100275.69;4981409;28;97293;-71
2020/12/26 03:01:21;;;;;;;1.50;1.40;;;;;;;7.54;70.48;100269.50;4980649;28;99054;-70
2020/12/26 03:03:48;;;;;;;1.40;1.30;;;;;;;7.61;70.26;100278.75;4985994;28;98629;-72
2020/12/26 03:06:14;;;;;;;1.50;1.40;;;;;;;7.66;70.29;100278.56;4984664;28;96714;-72
2020/12/26 03:08:41;;;;;;;5.38;1.55;;;;;;;7.59;70.03;100269.34;4984081;28;96976;-72
2020/12/26 03:11:08;;;;;;;1.30;1.27;;;;;;;7.56;70.13;100277.22;4976843;28;98390;-72
2020/12/26 03:13:34;;;;;;;1.60;1.50;;;;;;;7.50;70.74;100280.88;4981248;28;99558;-73
2020/12/26 03:16:02;;;;;;;3.03;1.52;;;;;;;7.41;70.36;100281.25;4982729;28;96938;-72
2020/12/26 03:18:29;;;;;;;1.50;1.40;;;;;;;7.43;69.90;100282.03;4981531;28;97698;-72
2020/12/26 03:21:13;;;;;;;2.05;1.95;;;;;;;7.43;70.55;100289.81;4980167;28;98533;-72
2020/12/26 03:23:39;;;;;;;1.60;1.50;;;;;;;7.58;69.85;100289.25;4979379;28;98628;-72
2020/12/26 03:26:06;;;;;;;1.50;1.40;;;;;;;7.51;69.86;100287.78;4981624;28;96858;-72
2020/12/26 03:28:32;;;;;;;1.50;1.40;;;;;;;7.43;70.34;100292.41;4982497;28;97285;-71
2020/12/26 03:30:58;;;;;;;2.95;1.20;;;;;;;7.48;69.54;100298.28;4981256;28;98575;-72
2020/12/26 03:33:25;;;;;;;1.30;1.20;;;;;;;7.44;70.08;100304.47;4981719;28;99734;-70
2020/12/26 03:35:51;;;;;;;1.95;1.45;;;;;;;7.35;70.12;100300.47;4978533;28;96788;-70
2020/12/26 03:38:18;;;;;;;1.48;1.38;;;;;;;7.40;70.39;100309.81;4981904;28;99585;-70
2020/12/26 03:40:44;;;;;;;1.48;1.38;;;;;;;7.38;70.61;100317.66;4981423;28;98516;-70
2020/12/26 03:43:10;;;;;;;1.40;1.30;;;;;;;7.39;70.77;100316.75;4982797;28;98457;-70
2020/12/26 03:45:37;;;;;;;1.65;1.55;;;;;;;7.40;70.72;100315.00;4981843;28;96912;-70
2020/12/26 03:48:03;;;;;;;1.67;1.58;;;;;;;7.29;71.17;100315.38;4979173;28;96762;-70
2020/12/26 03:50:29;;;;;;;2.00;1.83;;;;;;;7.46;70.66;100320.00;4980395;28;98672;-70
2020/12/26 03:52:58;;;;;;;1.98;1.50;;;;;;;7.45;69.80;100313.09;4981321;28;98592;-71
2020/12/26 03:55:25;;;;;;;1.70;1.60;;;;;;;7.19;70.83;100329.56;4979668;28;97129;-71
2020/12/26 03:57:51;;;;;;;2.17;1.98;;;;;;;7.19;70.71;100329.56;4981835;28;97486;-71
2020/12/26 04:00:17;;;;;;;3.47;2.00;;;;;;;7.21;70.25;100336.41;4982781;28;100812;-71
2020/12/26 04:02:44;;;;;;;2.65;2.15;;;;;;;7.08;70.95;100335.13;4963496;28;98581;-70
2020/12/26 04:05:10;;;;;;;3.17;2.72;;;;;;;7.18;70.74;100341.69;4982805;28;97505;-71
2020/12/26 04:07:36;;;;;;;2.75;2.50;;;;;;;7.11;70.01;100344.56;4981347;28;96635;-70
2020/12/26 04:10:03;;;;;;;2.13;2.03;;;;;;;7.21;70.00;100345.94;4979999;28;98667;-71
2020/12/26 04:12:30;;;;;;;2.70;2.45;;;;;;;7.07;70.26;100347.22;4983139;28;99034;-69
2020/12/26 04:14:57;;;;;;;2.10;2.00;;;;;;;6.88;70.65;100359.13;4979171;28;98614;-70
2020/12/26 04:17:23;;;;;;;2.65;2.45;;;;;;;7.00;71.02;100350.09;4982985;28;96922;-70
2020/12/26 04:19:50;;;;;;;2.35;2.20;;;;;;;6.90;71.17;100356.47;4976785;28;98572;-70
2020/12/26 04:22:16;;;;;;;2.33;2.13;;;;;;;6.96;71.36;100364.88;4982020;28;98531;-70
2020/12/26 04:24:43;;;;;;;2.55;2.30;;;;;;;6.90;71.02;100356.47;4982649;28;99792;-70
2020/12/26 04:27:10;;;;;;;3.58;2.45;;;;;;;6.97;70.72;100361.41;4978825;28;96934;-70
2020/12/26 04:29:36;;;;;;;2.15;2.05;;;;;;;6.81;70.91;100363.66;4983391;28;98575;-72
2020/12/26 04:32:03;;;;;;;2.58;2.38;;;;;;;6.91;71.15;100371.13;4982483;28;98585;-72
2020/12/26 04:34:29;;;;;;;2.78;2.58;;;;;;;7.00;70.76;100368.25;4982835;28;98006;-71
2020/12/26 04:36:55;;;;;;;4.65;2.42;;;;;;;6.85;70.73;100373.91;4988663;28;98719;-71
2020/12/26 04:39:22;;;;;;;2.50;2.30;;;;;;;6.85;70.78;100379.09;4968915;28;98468;-72
2020/12/26 04:41:49;;;;;;;2.47;2.28;;;;;;;6.78;71.35;100388.81;4992305;28;98751;-71
2020/12/26 04:44:15;;;;;;;2.40;2.20;;;;;;;6.85;71.17;100377.34;4990362;28;97496;-72
2020/12/26 04:46:42;;;;;;;2.85;2.65;;;;;;;6.89;71.07;100388.47;4962955;28;96765;-70
2020/12/26 04:49:09;;;;;;;2.50;2.28;;;;;;;6.88;70.61;100389.38;4980936;28;98626;-69
2020/12/26 04:51:41;;;;;;;1.95;1.85;;;;;;;6.81;71.21;100402.50;4982754;28;98429;-69
2020/12/26 04:54:11;;;;;;;3.67;2.20;;;;;;;6.88;71.20;100392.81;4986010;28;101001;-70
2020/12/26 04:56:40;;;;;;;2.67;2.50;;;;;;;6.79;71.42;100398.28;4963131;28;97502;-70
2020/12/26 04:59:07;;;;;;;2.55;2.35;;;;;;;6.66;71.69;100400.44;4981320;28;98715;-70
2020/12/26 05:01:38;;;;;;;2.35;2.22;;;;;;;6.93;70.07;100413.41;4984642;28;98579;-70
2020/12/26 05:04:04;;;;;;;2.53;2.35;;;;;;;7.00;70.16;100410.56;4957769;28;97596;-70
2020/12/26 05:06:31;;;;;;;2.58;2.38;;;;;;;6.89;70.75;100409.22;4984209;28;97737;-70
2020/12/26 05:08:58;;;;;;;2.53;2.42;;;;;;;6.85;70.54;100411.03;4985377;28;98445;-70
2020/12/26 05:11:24;;;;;;;5.20;2.35;;;;;;;6.77;69.99;100423.41;4985279;28;98613;-70
2020/12/26 05:13:51;;;;;;;2.50;2.30;;;;;;;6.72;70.00;100417.53;4983436;28;98092;-70
2020/12/26 05:16:17;;;;;;;2.40;2.30;;;;;;;6.77;70.43;100413.03;4979898;28;97226;-70
2020/12/26 05:18:44;;;;;;;2.17;2.00;;;;;;;6.94;70.15;100425.47;4968371;28;99128;-70
2020/12/26 05:21:10;;;;;;;3.70;2.38;;;;;;;6.83;70.14;100428.41;4963619;28;98562;-70
2020/12/26 05:23:38;;;;;;;2.00;1.90;;;;;;;6.99;69.85;100428.75;4984549;28;96735;-70
2020/12/26 05:26:04;;;;;;;2.47;2.28;;;;;;;6.94;70.00;100425.47;4984971;28;100772;-70
2020/12/26 05:28:33;;;;;;;2.97;2.78;;;;;;;6.88;70.06;100431.69;4981068;28;99131;-70
2020/12/26 05:31:05;;;;;;;2.55;2.35;;;;;;;6.91;69.59;100435.91;4983974;28;98790;-71
2020/12/26 05:33:32;;;;;;;3.22;2.65;;;;;;;6.87;69.76;100434.31;4980979;28;97474;-71
2020/12/26 05:36:04;;;;;;;2.40;2.20;;;;;;;7.08;69.26;100431.03;4964462;28;97608;-71
2020/12/26 05:38:30;;;;;;;2.45;2.35;;;;;;;7.09;68.71;100430.16;4980996;28;98862;-71
2020/12/26 05:40:57;;;;;;;3.10;2.90;;;;;;;6.99;69.87;100436.53;4982057;28;98338;-70
2020/12/26 05:43:33;;;;;;;2.53;2.35;;;;;;;6.75;70.30;100445.91;4984918;28;97261;-70
2020/12/26 05:45:59;;;;;;;4.97;2.70;;;;;;;6.75;70.30;100451.09;4982738;28;97669;-71
2020/12/26 05:48:28;;;;;;;2.95;2.70;;;;;;;6.85;70.64;100459.44;4982326;28;99184;-71
2020/12/26 05:50:58;;;;;;;3.00;2.80;;;;;;;6.81;69.94;100467.28;4986939;28;98614;-71
2020/12/26 05:53:25;;;;;;;2.20;2.10;;;;;;;6.67;70.34;100458.28;4989898;28;96614;-71
2020/12/26 05:55:51;;;;;;;2.88;2.67;;;;;;;6.77;70.45;100460.53;4990598;28;97151;-71
2020/12/26 05:58:19;;;;;;;2.80;2.55;;;;;;;6.83;69.31;100464.66;4989148;28;98603;-71
2020/12/26 06:00:45;;;;;;;3.17;2.17;;;;;;;6.93;69.68;100473.84;4980437;28;98498;-71
2020/12/26 06:03:27;;;;;;;2.97;2.78;;;;;;;7.00;69.16;100487.47;4981693;28;96785;-71
2020/12/26 06:06:01;;;;;;;3.38;3.10;;;;;;;6.71;69.77;100488.34;4984494;28;97457;-71
2020/12/26 06:08:28;;;;;;;3.30;3.10;;;;;;;6.86;69.82;100489.63;4985058;28;98989;-71
2020/12/26 06:10:59;;;;;;;2.92;2.72;;;;;;;6.94;68.94;100500.63;4980915;28;98786;-72
2020/12/26 06:13:27;;;;;;;2.97;2.78;;;;;;;6.97;68.87;100501.34;4981754;28;97453;-72
2020/12/26 06:15:54;;;;;;;3.72;2.30;;;;;;;7.03;68.79;100505.50;4981753;28;96684;-72
2020/12/26 06:18:21;;;;;;;3.35;3.05;;;;;;;6.95;69.09;100510.09;4980638;28;98886;-72
2020/12/26 06:20:48;;;;;;;3.60;3.30;;;;;;;6.93;69.14;100515.31;4982717;28;98680;-70
2020/12/26 06:23:22;;;;;;;2.78;2.58;;;;;;;7.00;68.78;100509.03;4982259;28;96889;-71
2020/12/26 06:25:49;;;;;;;2.58;2.38;;;;;;;7.02;68.79;100516.75;4980047;28;97363;-70
2020/12/26 06:28:26;;;;;;;2.60;2.40;;;;;;;6.89;68.50;100521.50;4982333;28;98658;-68
2020/12/26 06:31:04;;;;;;;2.78;2.58;;;;;;;6.96;68.52;100528.16;4981415;28;98812;-69
2020/12/26 06:33:41;;;;;;;2.78;2.58;;;;;;;6.90;69.04;100530.09;4980541;28;97720;-71
2020/12/26 06:36:08;;;;;;;3.95;2.80;;;;;;;6.86;69.14;100533.69;4965249;28;99778;-70
2020/12/26 06:38:35;;;;;;;3.47;3.17;;;;;;;6.89;68.82;100526.66;4980666;28;98861;-69
2020/12/26 06:41:01;;;;;;;2.95;2.65;;;;;;;6.70;69.44;100531.53;4980155;28;98431;-70
2020/12/26 06:43:43;;;;;;;3.45;3.15;;;;;;;6.83;68.94;100538.06;4981169;28;97639;-71
2020/12/26 06:46:32;;;;;;;3.30;3.00;;;;;;;6.95;68.84;100536.00;4987563;28;97763;-70
2020/12/26 06:48:58;;;;;;;3.08;2.88;;;;;;;6.71;69.18;100540.16;4991142;28;99028;-70
2020/12/26 06:51:43;;;;;;;3.20;2.90;;;;;;;6.80;68.91;100545.91;4989516;28;98394;-70
2020/12/26 06:54:12;;;;;;;3.47;3.17;;;;;;;6.81;69.06;100550.19;4990963;28;96583;-70
2020/12/26 06:56:41;;;;;;;3.25;2.95;;;;;;;6.84;69.18;100544.09;4991337;28;96723;-70
2020/12/26 06:59:08;;;;;;;3.38;3.08;;;;;;;6.86;68.96;100551.81;4991311;28;98726;-69
2020/12/26 07:01:37;;;;;;;3.45;3.15;;;;;;;7.00;68.73;100549.66;4991222;28;98636;-71
2020/12/26 07:04:22;;;;;;;2.97;2.72;;;;;;;6.95;69.41;100556.72;4991192;28;96603;-70
2020/12/26 07:06:53;;;;;;;3.75;3.45;;;;;;;7.05;68.69;100563.34;4990801;28;96661;-69
2020/12/26 07:09:38;;;;;;;4.38;3.45;;;;;;;7.04;68.55;100567.69;4990095;28;98476;-69
2020/12/26 07:12:05;;;;;;;;;;;;;;;6.98;68.64;100561.84;4989087;28;98644;-68
2020/12/26 07:14:38;;;;;;;3.65;3.35;;;;;;;7.05;68.48;100565.94;4989685;28;96891;-70
2020/12/26 07:17:14;;;;;;;3.90;3.53;;;;;;;7.06;68.43;100572.81;4982209;28;96966;-68
2020/12/26 07:19:42;;;;;;;4.00;3.60;;;;;;;7.14;68.36;100583.81;4980328;28;98774;-69
2020/12/26 07:22:30;;;;;;;4.28;3.95;;;;;;;7.00;69.10;100578.19;4964065;28;98692;-67
2020/12/26 07:25:07;;;;;;;4.63;4.25;;;;;;;6.94;69.32;100581.81;4979147;28;96753;-69
2020/12/26 07:27:39;;;;;;;4.95;4.45;;;;;;;7.11;68.35;100583.88;4981918;28;96619;-69
2020/12/26 07:30:10;;;;;;;4.72;4.43;;;;;;;7.02;69.30;100582.41;4982884;28;98695;-69
2020/12/26 07:32:37;;;;;;;3.97;3.67;;;;;;;7.10;67.96;100589.97;4988243;28;98467;-68
2020/12/26 07:35:16;;;;;;;4.80;4.40;;;;;;;7.08;68.64;100589.16;4987160;28;96768;-69
2020/12/26 07:37:43;;;;;;;4.45;4.05;;;;;;;6.98;68.87;100603.31;4984883;28;96543;-69
2020/12/26 07:40:14;;;;;;;4.30;4.00;;;;;;;7.06;68.31;100604.75;4987939;28;98782;-68
2020/12/26 07:42:42;;;;;;;4.63;4.13;;;;;;;7.14;68.64;100604.56;4978156;28;98605;-69
2020/12/26 07:45:13;;;;;;;4.78;4.32;;;;;;;7.13;68.57;100601.97;4979284;28;97156;-69
2020/12/26 07:47:47;;;;;;;7.25;4.50;;;;;;;7.22;67.82;100607.75;4977340;28;96655;-69
2020/12/26 07:50:14;;;;;;;4.83;4.33;;;;;;;7.21;68.16;100615.56;4985555;28;98622;-69
2020/12/26 07:53:00;;;;;;;4.25;3.85;;;;;;;7.28;67.81;100610.16;4986049;28;98663;-67
2020/12/26 07:55:27;;;;;;;4.43;4.03;;;;;;;7.19;67.99;100618.22;4979985;28;97027;-68
2020/12/26 07:58:04;;;;;;;4.55;4.15;;;;;;;7.34;68.00;100622.06;4981217;28;96663;-68
2020/12/26 08:00:35;;;;;;;4.38;3.97;;;;;;;7.31;68.50;100624.78;4982597;28;98426;-69
2020/12/26 08:03:03;;;;;;;4.57;4.18;;;;;;;7.32;67.74;100629.91;4992221;28;97549;-67
2020/12/26 08:05:31;;;;;;;4.60;4.20;;;;;;;7.34;68.07;100635.88;4992272;28;96714;-70
2020/12/26 08:07:58;;;;;;;5.32;4.82;;;;;;;7.39;67.71;100640.09;4989926;28;97077;-71
2020/12/26 08:10:24;;;;;;;4.78;4.25;;;;;;;7.32;68.41;100639.44;4985693;28;98455;-76
2020/12/26 08:12:52;;;;;;;5.63;4.70;;;;;;;7.44;68.04;100633.03;4992120;28;98897;-71
2020/12/26 08:15:20;;;;;;;4.18;3.85;;;;;;;7.26;67.84;100637.88;4993647;28;96749;-75
2020/12/26 08:17:51;;;;;;;4.22;3.80;;;;;;;7.35;68.02;100640.19;4992158;28;96675;-71
2020/12/26 08:20:19;;;;;;;6.65;4.90;;;;;;;7.52;67.62;100644.88;4989760;28;98673;-71
2020/12/26 08:22:45;;;;;;;9.30;7.32;;;;;;;7.49;67.32;100651.88;4988086;28;98936;-71
2020/12/26 08:25:13;;;;;;;17.02;11.85;;;;;;;7.35;67.96;100655.75;4971598;28;96781;-72
2020/12/26 08:27:40;;;;;;;16.40;11.55;;;;;;;7.34;68.30;100653.19;4988945;28;96659;-71
2020/12/26 08:30:11;;;;;;;47.08;29.63;;;;;;;7.39;67.92;100663.44;4990613;28;98495;-67
2020/12/26 08:32:56;;;;;;;20.75;14.63;;;;;;;7.34;68.27;100674.78;4969602;28;98638;-72
2020/12/26 08:35:24;;;;;;;14.95;11.32;;;;;;;7.43;68.56;100678.00;4980257;28;96680;-73
2020/12/26 08:37:55;;;;;;;6.75;5.70;;;;;;;7.47;68.31;100677.88;4989303;28;96900;-72
2020/12/26 08:40:22;;;;;;;6.30;5.70;;;;;;;7.61;67.81;100682.63;4968403;28;98665;-73
2020/12/26 08:42:48;;;;;;;4.95;4.45;;;;;;;7.46;67.98;100680.53;4991320;28;98467;-73
2020/12/26 08:45:30;;;;;;;4.35;3.95;;;;;;;7.45;68.62;100689.19;4962738;28;96908;-73
2020/12/26 08:47:59;;;;;;;3.92;3.53;;;;;;;7.39;68.30;100691.97;4986897;28;98533;-73
2020/12/26 08:50:27;;;;;;;4.70;4.20;;;;;;;7.49;68.25;100690.78;4988747;28;98527;-73
2020/12/26 08:53:09;;;;;;;6.93;5.60;;;;;;;7.44;68.38;100690.09;4991392;28;98448;-70
2020/12/26 08:55:46;;;;;;;6.53;5.90;;;;;;;7.49;68.07;100693.38;4993957;28;96887;-77
2020/12/26 08:58:24;;;;;;;7.88;5.72;;;;;;;7.63;67.64;100699.03;4992782;28;96679;-71
2020/12/26 09:00:51;;;;;;;6.00;5.40;;;;;;;7.58;67.25;100704.34;4992238;28;98411;-73
2020/12/26 09:03:25;;;;;;;6.47;5.88;;;;;;;7.63;67.55;100709.41;4975155;28;98613;-72
2020/12/26 09:05:52;;;;;;;5.63;5.13;;;;;;;7.67;67.43;100707.53;4992465;28;96714;-72
2020/12/26 09:08:18;;;;;;;5.40;4.85;;;;;;;7.72;67.89;100703.91;4998146;28;96973;-73
2020/12/26 09:10:55;;;;;;;8.85;7.35;;;;;;;7.67;66.98;100717.91;4991903;28;98698;-78
2020/12/26 09:13:28;;;;;;;5.80;5.30;;;;;;;7.69;67.26;100717.00;4991946;28;98510;-77
2020/12/26 09:15:55;;;;;;;6.47;5.88;;;;;;;7.72;67.62;100716.88;4992529;28;96547;-69
2020/12/26 09:18:26;;;;;;;7.18;6.13;;;;;;;7.93;66.65;100730.09;4974184;28;97416;-70
2020/12/26 09:20:57;;;;;;;4.95;4.45;;;;;;;7.81;66.86;100737.38;4990950;28;98681;-73
2020/12/26 09:23:29;;;;;;;5.45;4.25;;;;;;;7.84;66.58;100737.28;4986699;28;98397;-79
2020/12/26 09:26:07;;;;;;;5.80;5.20;;;;;;;8.00;66.48;100739.41;4993029;28;96643;-76
2020/12/26 09:28:56;;;;;;;6.03;5.43;;;;;;;8.03;66.72;100742.75;4990189;28;97060;-79
2020/12/26 09:31:23;;;;;;;4.88;4.47;;;;;;;8.07;66.68;100749.53;4992242;28;98635;-77
2020/12/26 09:33:52;;;;;;;6.30;5.72;;;;;;;8.12;66.65;100750.25;4992437;28;97474;-77
2020/12/26 09:36:20;;;;;;;6.22;5.63;;;;;;;8.10;66.95;100748.63;4993135;28;97263;-78
2020/12/26 09:38:46;;;;;;;7.03;6.00;;;;;;;8.02;66.94;100755.78;4992379;28;96732;-78
2020/12/26 09:41:23;;;;;;;8.88;5.28;;;;;;;8.12;66.57;100754.59;4989817;28;98803;-77
2020/12/26 09:43:51;;;;;;;4.90;4.40;;;;;;;8.11;66.32;100753.75;4989903;28;98538;-78
2020/12/26 09:46:18;;;;;;;5.78;4.80;;;;;;;8.20;66.32;100764.72;4993108;28;97185;-78
2020/12/26 09:48:45;;;;;;;5.00;4.50;;;;;;;8.29;65.68;100767.88;4994034;28;96738;-79
2020/12/26 09:51:15;;;;;;;5.38;4.68;;;;;;;8.36;65.47;100765.97;4995516;28;98444;-75
2020/12/26 09:53:42;;;;;;;6.18;5.13;;;;;;;8.30;65.88;100759.19;4990521;28;98461;-80
2020/12/26 09:56:09;;;;;;;5.30;4.78;;;;;;;8.34;66.21;100765.13;4969780;28;96552;-78
2020/12/26 09:58:39;;;;;;;5.38;4.95;;;;;;;8.28;65.91;100761.00;4993150;28;96650;-69
2020/12/26 10:01:06;;;;;;;6.45;5.25;;;;;;;8.14;66.27;100760.56;4990580;28;98468;-61
2020/12/26 10:03:32;;;;;;;5.60;5.03;;;;;;;8.29;65.98;100767.88;4992078;28;98558;-72
2020/12/26 10:05:59;;;;;;;4.60;4.20;;;;;;;8.01;66.23;100749.75;4991038;28;96605;-78
2020/12/26 10:08:28;;;;;;;6.82;4.45;;;;;;;8.20;65.73;100759.53;4992087;28;96592;-74
2020/12/26 10:10:54;;;;;;;5.45;4.53;;;;;;;8.35;65.00;100759.03;4990610;28;98476;-70
2020/12/26 10:13:20;;;;;;;10.90;3.83;;;;;;;8.30;66.03;100755.75;4989844;28;98422;-70
2020/12/26 10:15:47;;;;;;;4.22;3.92;;;;;;;8.39;65.48;100761.53;4990613;28;96553;-71
2020/12/26 10:18:14;;;;;;;5.03;4.25;;;;;;;8.40;65.57;100759.78;4989688;28;97077;-74
2020/12/26 10:20:41;;;;;;;5.38;4.80;;;;;;;8.25;66.49;100763.69;4989967;28;98613;-73
2020/12/26 10:23:09;;;;;;;5.05;3.50;;;;;;;8.48;65.16;100768.19;4991263;28;98455;-74
2020/12/26 10:25:47;;;;;;;4.22;3.80;;;;;;;8.53;64.48;100762.84;4976293;28;96654;-72
2020/12/26 10:28:14;;;;;;;4.82;4.20;;;;;;;8.64;64.89;100755.53;4973652;28;97797;-74
2020/12/26 10:30:40;;;;;;;9.95;3.50;;;;;;;8.66;64.10;100753.72;4989827;28;98497;-74
2020/12/26 10:33:06;;;;;;;4.07;3.67;;;;;;;8.66;63.57;100756.31;4991167;28;98622;-66
2020/12/26 10:35:32;;;;;;;4.57;4.18;;;;;;;8.77;63.51;100748.16;4991499;28;97967;-66
2020/12/26 10:37:59;;;;;;;3.92;3.35;;;;;;;8.94;62.78;100740.59;4986926;28;98169;-60
2020/12/26 10:40:25;;;;;;;4.15;3.75;;;;;;;8.84;63.05;100739.22;4990889;28;98504;-68
2020/12/26 10:42:52;;;;;;;5.85;4.00;;;;;;;8.76;63.55;100736.06;4991539;28;98407;-66
2020/12/26 10:45:18;;;;;;;5.07;3.95;;;;;;;8.79;63.48;100739.41;4989952;28;97048;-66
2020/12/26 10:47:44;;;;;;;4.20;3.85;;;;;;;8.74;63.75;100741.31;4991851;28;96821;-65
2020/12/26 10:50:11;;;;;;;5.22;3.50;;;;;;;8.85;63.58;100736.59;4990953;28;98460;-68
2020/12/26 10:52:37;;;;;;;4.97;4.47;;;;;;;8.83;63.40;100740.13;4990980;28;97457;-67
2020/12/26 10:55:04;;;;;;;3.55;3.25;;;;;;;8.98;63.20;100738.75;4990381;28;96691;-69
2020/12/26 10:57:30;;;;;;;4.20;3.90;;;;;;;9.06;62.21;100734.13;4991091;28;96592;-67
2020/12/26 10:59:57;;;;;;;4.28;3.63;;;;;;;9.09;61.76;100739.22;4989344;28;98568;-66
2020/12/26 11:02:23;;;;;;;3.67;3.25;;;;;;;9.04;62.36;100739.38;4989986;28;98519;-67
2020/12/26 11:04:50;;;;;;;5.85;3.20;;;;;;;8.89;62.10;100735.59;4972965;28;97420;-66
2020/12/26 11:07:16;;;;;;;3.50;3.20;;;;;;;9.04;61.44;100734.16;4971890;28;96966;-68
2020/12/26 11:09:42;;;;;;;3.55;3.25;;;;;;;8.96;60.97;100728.41;4990235;28;98651;-69
2020/12/26 11:12:09;;;;;;;3.83;3.17;;;;;;;9.00;60.16;100736.94;4989481;28;98773;-67
2020/12/26 11:14:36;;;;;;;3.65;3.25;;;;;;;8.95;60.75;100733.66;4989822;28;96779;-70
2020/12/26 11:17:02;;;;;;;3.40;3.10;;;;;;;9.02;61.26;100728.19;4989700;28;96731;-71
2020/12/26 11:19:29;;;;;;;5.75;4.22;;;;;;;9.08;60.88;100729.72;4988499;28;98592;-69
2020/12/26 11:21:55;;;;;;;6.57;4.50;;;;;;;9.08;60.44;100727.13;4990434;28;98450;-67
2020/12/26 11:24:22;;;;;;;5.68;3.55;;;;;;;9.01;59.37;100729.09;4990503;28;96732;-66
2020/12/26 11:26:48;;;;;;;5.43;3.72;;;;;;;9.15;58.95;100724.22;4991486;28;96714;-66
2020/12/26 11:29:14;;;;;;;3.33;2.95;;;;;;;9.24;59.24;100719.59;4989971;28;98609;-66
2020/12/26 11:31:41;;;;;;;5.50;3.80;;;;;;;9.25;59.24;100716.09;4990632;28;98445;-67
2020/12/26 11:34:10;;;;;;;4.10;3.50;;;;;;;9.24;59.04;100715.25;4990330;28;96733;-66
2020/12/26 11:36:38;;;;;;;6.55;4.07;;;;;;;9.07;60.17;100722.81;4990236;28;96672;-66
2020/12/26 11:39:05;;;;;;;5.15;3.92;;;;;;;9.17;58.65;100713.78;4990284;28;98476;-69